createdAt,value
2022-11-15T00:01:44.557Z,16.38
2022-11-15T00:04:30.129Z,15.65
2022-11-15T00:07:40.416Z,15.18
2022-11-15T00:10:24.570Z,15.65
2022-11-15T00:13:11.259Z,15.13
2022-11-15T00:16:00.529Z,14.32
2022-11-15T00:18:50.271Z,14.80
2022-11-15T00:21:36.609Z,14.00
2022-11-15T00:24:22.430Z,12.10
2022-11-15T00:27:08.392Z,11.88
2022-11-15T00:29:54.512Z,11.00
2022-11-15T00:32:40.234Z,16.45
2022-11-15T00:35:26.101Z,14.98
2022-11-15T00:38:11.918Z,16.63
2022-11-15T00:40:57.930Z,12.82
2022-11-15T00:43:44.636Z,17.23
2022-11-15T00:46:30.504Z,15.52
2022-11-15T00:49:16.251Z,8.57
2022-11-15T00:52:02.097Z,16.75
2022-11-15T00:54:47.937Z,17.60
2022-11-15T00:57:33.718Z,17.30
2022-11-15T01:00:19.520Z,16.45
2022-11-15T01:03:05.451Z,12.82
2022-11-15T01:05:51.163Z,15.68
2022-11-15T01:08:37.060Z,17.67
2022-11-15T01:11:22.971Z,19.33
2022-11-15T01:14:11.169Z,19.85
2022-11-15T01:16:57.298Z,17.25
2022-11-15T01:19:43.021Z,15.70
2022-11-15T01:22:29.037Z,18.60
2022-11-15T01:25:15.222Z,18.08
2022-11-15T01:28:00.847Z,13.10
2022-11-15T01:30:46.493Z,18.90
2022-11-15T01:33:32.845Z,18.15
2022-11-15T01:36:20.206Z,20.80
2022-11-15T01:39:05.742Z,17.48
2022-11-15T01:41:51.482Z,17.85
2022-11-15T01:44:42.784Z,16.15
2022-11-15T01:47:31.201Z,18.10
2022-11-15T01:50:19.375Z,19.65
2022-11-15T01:53:05.294Z,15.27
2022-11-15T01:55:51.196Z,18.48
2022-11-15T01:58:37.342Z,19.45
2022-11-15T02:01:24.275Z,17.58
2022-11-15T02:04:18.237Z,19.90
2022-11-15T02:07:05.528Z,16.70
2022-11-15T02:09:51.687Z,19.48
2022-11-15T02:12:37.711Z,14.43
2022-11-15T02:15:23.659Z,18.25
2022-11-15T02:18:13.100Z,19.77
2022-11-15T02:20:59.281Z,20.05
2022-11-15T02:23:45.667Z,17.27
2022-11-15T02:26:31.460Z,18.88
2022-11-15T02:29:30.034Z,13.27
2022-11-15T02:32:35.824Z,20.65
2022-11-15T02:35:40.459Z,20.45
2022-11-15T02:38:44.583Z,17.42
2022-11-15T02:41:33.867Z,19.92
2022-11-15T02:44:22.844Z,18.20
2022-11-15T02:47:13.989Z,18.80
2022-11-15T02:50:09.020Z,20.20
2022-11-15T02:52:54.903Z,13.43
2022-11-15T02:55:45.072Z,20.15
2022-11-15T02:58:36.891Z,20.63
2022-11-15T03:01:25.919Z,15.13
2022-11-15T03:04:11.704Z,19.23
2022-11-15T03:07:15.835Z,17.50
2022-11-15T03:10:11.139Z,19.63
2022-11-15T03:13:02.781Z,19.02
2022-11-15T03:16:14.763Z,19.65
2022-11-15T03:19:13.670Z,20.40
2022-11-15T03:22:01.178Z,18.60
2022-11-15T03:24:49.888Z,16.48
2022-11-15T03:27:41.678Z,16.80
2022-11-15T03:30:27.528Z,17.80
2022-11-15T03:33:13.350Z,19.83
2022-11-15T03:35:59.442Z,19.67
2022-11-15T03:38:46.458Z,19.38
2022-11-15T03:41:49.670Z,19.70
2022-11-15T03:44:35.726Z,16.45
2022-11-15T03:47:24.544Z,19.48
2022-11-15T03:50:13.649Z,19.48
2022-11-15T03:52:59.589Z,17.77
2022-11-15T03:55:47.596Z,15.82
2022-11-15T03:58:33.276Z,17.13
2022-11-15T04:01:19.055Z,18.40
2022-11-15T04:04:04.966Z,20.42
2022-11-15T04:06:50.994Z,14.02
2022-11-15T04:09:56.831Z,16.77
2022-11-15T04:12:44.476Z,16.20
2022-11-15T04:15:31.087Z,15.73
2022-11-15T04:18:17.031Z,15.43
2022-11-15T04:21:21.671Z,13.82
2022-11-15T04:24:13.535Z,17.67
2022-11-15T04:26:59.240Z,17.63
2022-11-15T04:29:44.872Z,17.70
2022-11-15T04:32:30.726Z,16.33
2022-11-15T04:35:16.538Z,18.98
2022-11-15T04:38:03.075Z,18.02
2022-11-15T04:40:48.825Z,18.70
2022-11-15T04:43:34.997Z,17.42
2022-11-15T04:46:20.832Z,18.83
2022-11-15T04:49:06.725Z,16.90
2022-11-15T04:51:52.431Z,18.38
2022-11-15T04:54:38.339Z,16.55
2022-11-15T04:57:24.185Z,16.88
2022-11-15T05:00:12.464Z,17.42
2022-11-15T05:03:17.485Z,16.90
2022-11-15T05:06:03.298Z,15.13
2022-11-15T05:08:49.133Z,16.10
2022-11-15T05:11:34.953Z,17.80
2022-11-15T05:14:20.860Z,16.25
2022-11-15T05:17:06.721Z,15.13
2022-11-15T05:19:53.479Z,12.95
2022-11-15T05:22:39.687Z,13.85
2022-11-15T05:25:25.306Z,11.13
2022-11-15T05:28:11.221Z,16.23
2022-11-15T05:31:03.800Z,16.02
2022-11-15T05:33:50.936Z,12.43
2022-11-15T05:36:40.352Z,15.60
2022-11-15T05:39:27.161Z,14.88
2022-11-15T05:42:16.843Z,15.82
2022-11-15T05:45:04.344Z,13.32
2022-11-15T05:47:51.370Z,13.52
2022-11-15T05:50:38.717Z,17.00
2022-11-15T05:53:24.909Z,12.65
2022-11-15T05:56:10.938Z,14.68
2022-11-15T05:58:59.789Z,10.73
2022-11-15T06:01:45.766Z,13.65
2022-11-15T06:04:31.311Z,14.40
2022-11-15T06:07:17.310Z,13.82
2022-11-15T06:10:03.326Z,14.35
2022-11-15T06:12:48.936Z,15.25
2022-11-15T06:15:35.309Z,14.25
2022-11-15T06:18:20.386Z,15.65
2022-11-15T06:21:06.658Z,15.20
2022-11-15T06:23:52.589Z,12.93
2022-11-15T06:26:38.474Z,14.60
2022-11-15T06:29:24.657Z,15.10
2022-11-15T06:32:10.911Z,14.38
2022-11-15T06:34:57.018Z,15.13
2022-11-15T06:37:42.965Z,16.00
2022-11-15T06:40:28.843Z,12.50
2022-11-15T06:43:15.574Z,15.73
2022-11-15T06:46:01.979Z,15.25
2022-11-15T06:48:48.668Z,15.07
2022-11-15T06:51:34.342Z,13.25
2022-11-15T06:54:21.709Z,12.55
2022-11-15T06:57:07.480Z,15.13
2022-11-15T06:59:53.306Z,17.33
2022-11-15T07:02:39.162Z,12.95
2022-11-15T07:05:24.835Z,15.68
2022-11-15T07:08:10.909Z,14.02
2022-11-15T07:11:00.218Z,14.02
2022-11-15T07:13:46.289Z,11.57
2022-11-15T07:16:32.051Z,15.88
2022-11-15T07:19:17.853Z,14.55
2022-11-15T07:22:03.629Z,14.23
2022-11-15T07:24:49.559Z,12.68
2022-11-15T07:27:35.280Z,11.40
2022-11-15T07:30:21.136Z,14.30
2022-11-15T07:33:06.978Z,11.10
2022-11-15T07:35:52.801Z,15.43
2022-11-15T07:38:42.849Z,11.20
2022-11-15T07:41:28.846Z,13.30
2022-11-15T07:44:14.695Z,13.10
2022-11-15T07:47:00.526Z,13.20
2022-11-15T07:49:54.618Z,13.10
2022-11-15T07:52:40.625Z,11.38
2022-11-15T07:55:28.087Z,11.20
2022-11-15T07:58:14.436Z,12.88
2022-11-15T08:01:00.507Z,11.98
2022-11-15T08:03:46.583Z,11.80
2022-11-15T08:06:32.603Z,10.48
2022-11-15T08:09:18.519Z,11.05
2022-11-15T08:12:06.371Z,12.95
2022-11-15T08:14:52.445Z,10.65
2022-11-15T08:17:38.044Z,8.02
2022-11-15T08:20:24.226Z,10.13
2022-11-15T08:23:11.732Z,10.73
2022-11-15T08:26:07.077Z,11.82
2022-11-15T08:31:39.040Z,10.25
2022-11-15T08:34:25.038Z,11.45
2022-11-15T08:37:11.124Z,9.98
2022-11-15T08:39:56.929Z,10.85
2022-11-15T08:42:42.815Z,10.43
2022-11-15T08:45:28.811Z,11.18
2022-11-15T08:48:14.897Z,9.98
2022-11-15T08:51:00.712Z,9.73
2022-11-15T08:53:46.667Z,10.18
2022-11-15T08:56:32.738Z,10.05
2022-11-15T08:59:19.450Z,10.43
2022-11-15T09:02:05.835Z,9.13
2022-11-15T09:04:51.467Z,9.40
2022-11-15T09:07:37.591Z,9.40
2022-11-15T09:10:23.957Z,8.98
2022-11-15T09:13:09.750Z,8.75
2022-11-15T09:15:59.069Z,7.07
2022-11-15T09:18:44.984Z,9.00
2022-11-15T09:21:31.200Z,9.23
2022-11-15T09:24:16.649Z,8.05
2022-11-15T09:27:02.387Z,7.47
2022-11-15T09:29:47.791Z,7.93
2022-11-15T09:32:37.975Z,7.40
2022-11-15T09:35:24.908Z,8.13
2022-11-15T09:38:10.721Z,6.10
2022-11-15T09:41:10.046Z,6.65
2022-11-15T09:44:10.043Z,6.10
2022-11-15T09:46:58.939Z,7.40
2022-11-15T09:50:00.153Z,6.15
2022-11-15T09:52:35.328Z,6.78
2022-11-15T09:55:02.561Z,5.82
2022-11-15T09:57:48.654Z,5.65
2022-11-15T10:00:45.357Z,6.43
2022-11-15T10:03:14.464Z,5.95
2022-11-15T10:05:45.652Z,5.80
2022-11-15T10:08:31.968Z,5.20
2022-11-15T10:11:35.683Z,4.78
2022-11-15T10:13:51.106Z,5.43
2022-11-15T10:16:54.960Z,5.75
2022-11-15T10:19:40.419Z,5.43
2022-11-15T10:22:19.938Z,5.20
2022-11-15T10:24:47.380Z,4.25
2022-11-15T10:27:19.336Z,4.90
2022-11-15T10:29:48.538Z,4.00
2022-11-15T10:32:16.917Z,5.22
2022-11-15T10:34:48.037Z,4.57
2022-11-15T10:37:15.315Z,4.25
2022-11-15T10:39:49.459Z,4.68
2022-11-15T10:42:34.327Z,4.25
2022-11-15T10:45:01.490Z,3.75
2022-11-15T10:47:37.625Z,3.83
2022-11-15T10:50:27.663Z,3.58
2022-11-15T10:52:55.158Z,4.15
2022-11-15T10:55:29.367Z,3.40
2022-11-15T10:58:06.569Z,3.45
2022-11-15T11:00:33.775Z,3.45
2022-11-15T11:03:02.355Z,2.85
2022-11-15T11:05:36.576Z,3.65
2022-11-15T11:08:22.807Z,3.22
2022-11-15T11:11:02.480Z,2.92
2022-11-15T11:13:38.920Z,3.00
2022-11-15T11:16:06.009Z,2.72
2022-11-15T11:18:53.418Z,2.38
2022-11-15T11:21:33.068Z,2.20
2022-11-15T11:24:14.058Z,2.42
2022-11-15T11:26:44.364Z,2.50
2022-11-15T11:29:42.457Z,2.45
2022-11-15T11:32:38.287Z,2.25
2022-11-15T11:35:15.263Z,2.03
2022-11-15T11:37:48.367Z,2.20
2022-11-15T11:40:33.207Z,2.13
2022-11-15T11:43:19.911Z,1.95
2022-11-15T11:46:24.254Z,1.98
2022-11-15T11:49:13.313Z,2.63
2022-11-15T11:52:02.021Z,1.95
2022-11-15T11:54:36.818Z,2.05
2022-11-15T11:57:12.008Z,1.83
2022-11-15T11:59:55.485Z,1.55
2022-11-15T12:02:22.766Z,2.28
2022-11-15T12:04:51.998Z,1.85
2022-11-15T12:07:22.326Z,1.75
2022-11-15T12:10:15.213Z,1.42
2022-11-15T12:12:56.930Z,1.50
2022-11-15T12:15:26.387Z,1.58
2022-11-15T12:17:53.644Z,1.55
2022-11-15T12:20:25.289Z,1.98
2022-11-15T12:23:01.652Z,1.70
2022-11-15T12:25:47.374Z,1.60
2022-11-15T12:28:33.876Z,1.88
2022-11-15T12:31:13.220Z,1.63
2022-11-15T12:33:47.785Z,1.98
2022-11-15T12:36:23.724Z,1.83
2022-11-15T12:38:54.575Z,1.33
2022-11-15T12:41:22.215Z,1.55
2022-11-15T12:43:49.895Z,1.67
2022-11-15T12:46:46.503Z,1.42
2022-11-15T12:49:25.778Z,1.35
2022-11-15T12:51:53.395Z,1.40
2022-11-15T12:54:23.847Z,1.60
2022-11-15T12:57:09.114Z,1.50
2022-11-15T12:59:56.426Z,1.48
2022-11-15T13:02:28.134Z,1.30
2022-11-15T13:04:57.066Z,1.98
2022-11-15T13:07:36.300Z,1.80
2022-11-15T13:10:27.756Z,1.42
2022-11-15T13:12:58.421Z,1.63
2022-11-15T13:15:35.898Z,1.48
2022-11-15T13:18:36.058Z,1.85
2022-11-15T13:21:24.462Z,1.48
2022-11-15T13:23:55.535Z,2.40
2022-11-15T13:26:22.967Z,1.85
2022-11-15T13:28:52.765Z,1.88
2022-11-15T13:31:28.974Z,1.95
2022-11-15T13:33:57.654Z,1.23
2022-11-15T13:36:36.311Z,1.40
2022-11-15T13:39:06.192Z,1.48
2022-11-15T13:41:35.666Z,2.30
2022-11-15T13:44:03.396Z,1.90
2022-11-15T13:46:31.726Z,2.20
2022-11-15T13:49:00.143Z,2.70
2022-11-15T13:51:27.184Z,2.00
2022-11-15T13:54:00.140Z,1.90
2022-11-15T13:56:29.275Z,2.15
2022-11-15T13:58:56.333Z,1.92
2022-11-15T14:01:24.191Z,2.25
2022-11-15T14:03:55.488Z,2.17
2022-11-15T14:06:24.086Z,2.17
2022-11-15T14:09:09.990Z,2.10
2022-11-15T14:11:37.169Z,2.30
2022-11-15T14:14:10.387Z,2.03
2022-11-15T14:16:48.189Z,2.08
2022-11-15T14:19:21.449Z,2.30
2022-11-15T14:22:07.178Z,2.17
2022-11-15T14:24:34.297Z,2.83
2022-11-15T14:27:19.795Z,5.57
2022-11-15T14:29:46.987Z,2.53
2022-11-15T14:32:18.582Z,2.60
2022-11-15T14:34:45.919Z,2.13
2022-11-15T14:37:24.068Z,2.30
2022-11-15T14:39:51.510Z,2.17
2022-11-15T14:42:18.798Z,2.58
2022-11-15T14:44:46.470Z,1.98
2022-11-15T14:47:13.639Z,2.22
2022-11-15T14:49:40.866Z,3.08
2022-11-15T14:52:36.060Z,1.95
2022-11-15T14:55:04.614Z,2.17
2022-11-15T14:57:31.854Z,2.03
2022-11-15T14:59:58.976Z,2.30
2022-11-15T15:02:39.633Z,2.25
2022-11-15T15:05:26.372Z,2.30
2022-11-15T15:07:56.761Z,1.58
2022-11-15T15:10:39.562Z,2.05
2022-11-15T15:13:07.806Z,1.92
2022-11-15T15:15:35.973Z,2.30
2022-11-15T15:18:03.621Z,2.67
2022-11-15T15:20:30.979Z,2.00
2022-11-15T15:22:58.908Z,2.13
2022-11-15T15:25:30.572Z,1.88
2022-11-15T15:27:57.925Z,2.22
2022-11-15T15:30:25.536Z,1.73
2022-11-15T15:32:52.690Z,1.83
2022-11-15T15:35:20.450Z,2.08
2022-11-15T15:37:48.112Z,1.80
2022-11-15T15:40:17.414Z,1.95
2022-11-15T15:42:44.756Z,1.85
2022-11-15T15:45:12.220Z,2.20
2022-11-15T15:47:39.757Z,1.98
2022-11-15T15:50:22.371Z,2.33
2022-11-15T15:52:50.079Z,1.95
2022-11-15T15:55:17.554Z,1.83
2022-11-15T15:57:44.652Z,1.90
2022-11-15T16:00:12.120Z,1.55
2022-11-15T16:02:40.725Z,1.83
2022-11-15T16:05:08.659Z,2.30
2022-11-15T16:07:36.964Z,1.33
2022-11-15T16:10:15.854Z,1.83
2022-11-15T16:12:42.983Z,2.22
2022-11-15T16:15:10.295Z,1.63
2022-11-15T16:17:40.059Z,8.32
2022-11-15T16:20:07.296Z,5.90
2022-11-15T16:22:34.407Z,2.53
2022-11-15T16:25:01.466Z,7.47
2022-11-15T16:27:28.521Z,5.05
2022-11-15T16:29:55.578Z,10.73
2022-11-15T16:32:23.800Z,7.97
2022-11-15T16:34:50.914Z,3.00
2022-11-15T16:37:24.690Z,1.40
2022-11-15T16:39:59.800Z,1.90
2022-11-15T16:42:28.018Z,2.20
2022-11-15T16:44:57.189Z,2.20
2022-11-15T16:47:24.383Z,1.65
2022-11-15T16:49:51.430Z,1.73
2022-11-15T16:52:21.373Z,2.30
2022-11-15T16:57:16.489Z,2.22
2022-11-15T16:59:43.553Z,2.25
2022-11-15T17:02:13.612Z,1.85
2022-11-15T17:04:40.763Z,1.77
2022-11-15T17:07:07.965Z,1.50
2022-11-15T17:09:35.152Z,2.50
2022-11-15T17:12:02.227Z,1.70
2022-11-15T17:14:29.848Z,1.90
2022-11-15T17:16:57.115Z,1.77
2022-11-15T17:19:24.279Z,1.67
2022-11-15T17:21:51.373Z,2.47
2022-11-15T17:24:20.727Z,2.58
2022-11-15T17:26:47.844Z,1.67
2022-11-15T17:29:14.940Z,1.83
2022-11-15T17:31:42.248Z,2.15
2022-11-15T17:34:09.451Z,1.70
2022-11-15T17:36:36.699Z,2.13
2022-11-15T17:39:04.916Z,2.20
2022-11-15T17:41:32.289Z,2.20
2022-11-15T17:44:00.532Z,2.42
2022-11-15T17:46:34.018Z,2.53
2022-11-15T17:49:01.141Z,2.08
2022-11-15T17:51:28.427Z,2.70
2022-11-15T17:53:56.421Z,2.60
2022-11-15T17:56:24.386Z,2.35
2022-11-15T17:58:52.583Z,2.80
2022-11-15T18:01:21.337Z,2.80
2022-11-15T18:03:49.069Z,2.88
2022-11-15T18:06:16.814Z,2.97
2022-11-15T18:08:44.766Z,2.97
2022-11-15T18:11:15.897Z,3.03
2022-11-15T18:13:49.477Z,3.20
2022-11-15T18:16:20.454Z,2.58
2022-11-15T18:18:47.620Z,4.22
2022-11-15T18:21:16.127Z,3.25
2022-11-15T18:23:44.161Z,3.50
2022-11-15T18:26:14.736Z,3.55
2022-11-15T18:28:43.011Z,4.13
2022-11-15T18:31:14.938Z,4.30
2022-11-15T18:33:43.078Z,4.20
2022-11-15T18:36:14.418Z,3.50
2022-11-15T18:38:41.951Z,3.42
2022-11-15T18:41:17.704Z,3.33
2022-11-15T18:43:45.281Z,3.38
2022-11-15T18:46:13.497Z,4.15
2022-11-15T18:48:41.430Z,3.97
2022-11-15T18:51:09.392Z,3.72
2022-11-15T18:53:37.152Z,3.70
2022-11-15T18:56:05.614Z,3.70
2022-11-15T18:58:33.786Z,4.68
2022-11-15T19:01:21.609Z,4.05
2022-11-15T19:03:50.357Z,4.10
2022-11-15T19:06:18.825Z,19.13
2022-11-15T19:08:46.805Z,5.60
2022-11-15T19:11:18.294Z,4.55
2022-11-15T19:13:48.893Z,7.28
2022-11-15T19:16:16.941Z,5.50
2022-11-15T19:18:45.513Z,5.45
2022-11-15T19:21:16.034Z,4.50
2022-11-15T19:23:43.405Z,5.43
2022-11-15T19:26:15.824Z,7.00
2022-11-15T19:28:43.323Z,6.10
2022-11-15T19:31:14.827Z,4.82
2022-11-15T19:33:42.677Z,5.22
2022-11-15T19:36:13.242Z,5.70
2022-11-15T19:38:41.042Z,6.38
2022-11-15T19:41:09.240Z,5.10
2022-11-15T19:43:36.457Z,5.03
2022-11-15T19:46:04.318Z,5.05
2022-11-15T19:48:32.433Z,5.40
2022-11-15T19:51:06.857Z,5.80
2022-11-15T19:53:35.645Z,4.07
2022-11-15T19:56:04.256Z,4.82
2022-11-15T19:58:31.705Z,5.40
2022-11-15T20:01:03.316Z,6.50
2022-11-15T20:03:31.833Z,6.38
2022-11-15T20:06:06.250Z,6.07
2022-11-15T20:08:34.440Z,4.80
2022-11-15T20:11:02.057Z,5.70
2022-11-15T20:13:30.197Z,5.72
2022-11-15T20:15:57.475Z,6.55
2022-11-15T20:18:25.649Z,5.88
2022-11-15T20:20:52.735Z,5.03
2022-11-15T20:23:19.827Z,7.75
2022-11-15T20:25:48.036Z,6.22
2022-11-15T20:28:24.123Z,7.10
2022-11-15T20:30:55.702Z,6.85
2022-11-15T20:33:23.414Z,6.38
2022-11-15T20:35:50.642Z,6.93
2022-11-15T20:38:17.826Z,6.50
2022-11-15T20:40:48.777Z,6.88
2022-11-15T20:43:16.870Z,6.35
2022-11-15T20:45:44.987Z,8.15
2022-11-15T20:48:15.119Z,7.32
2022-11-15T20:50:43.629Z,8.32
2022-11-15T20:53:12.508Z,6.55
2022-11-15T20:55:41.030Z,7.22
2022-11-15T20:58:08.467Z,5.88
2022-11-15T21:00:36.780Z,7.75
2022-11-15T21:03:07.920Z,6.85
2022-11-15T21:05:38.984Z,8.32
2022-11-15T21:08:08.189Z,8.20
2022-11-15T21:10:54.672Z,8.15
2022-11-15T21:13:22.234Z,7.38
2022-11-15T21:15:49.591Z,8.80
2022-11-15T21:18:17.481Z,7.60
2022-11-15T21:20:44.765Z,8.30
2022-11-15T21:23:12.541Z,7.90
2022-11-15T21:25:39.721Z,8.02
2022-11-15T21:28:06.834Z,8.40
2022-11-15T21:30:34.005Z,8.38
2022-11-15T21:33:01.134Z,8.95
2022-11-15T21:35:28.201Z,8.70
2022-11-15T21:37:57.199Z,8.68
2022-11-15T21:40:25.178Z,8.95
2022-11-15T21:42:52.446Z,8.65
2022-11-15T21:45:19.690Z,9.50
2022-11-15T21:47:47.080Z,9.10
2022-11-15T21:50:14.443Z,9.10
2022-11-15T21:52:41.754Z,10.02
2022-11-15T21:55:09.536Z,10.60
2022-11-15T21:57:36.837Z,9.10
2022-11-15T22:00:23.062Z,9.52
2022-11-15T22:02:50.354Z,9.98
2022-11-15T22:05:17.611Z,10.60
2022-11-15T22:07:44.747Z,9.70
2022-11-15T22:10:11.837Z,10.40
2022-11-15T22:12:40.155Z,10.50
2022-11-15T22:15:07.834Z,9.48
2022-11-15T22:17:53.534Z,9.85
2022-11-15T22:20:43.482Z,9.98
2022-11-15T22:23:07.910Z,9.93
2022-11-15T22:25:35.194Z,10.38
2022-11-15T22:28:02.301Z,10.25
2022-11-15T22:30:29.925Z,10.90
2022-11-15T22:32:57.173Z,9.48
2022-11-15T22:35:24.354Z,10.25
2022-11-15T22:37:52.692Z,7.93
2022-11-15T22:40:20.031Z,10.18
2022-11-15T22:42:47.334Z,9.80
2022-11-15T22:45:14.439Z,9.93
2022-11-15T22:47:41.600Z,9.40
2022-11-15T22:50:09.338Z,9.13
2022-11-15T22:52:36.527Z,9.73
2022-11-15T22:55:03.686Z,8.63
2022-11-15T22:57:30.828Z,8.70
2022-11-15T22:59:58.098Z,9.77
2022-11-15T23:02:27.138Z,9.27
2022-11-15T23:04:54.454Z,8.82
2022-11-15T23:07:21.729Z,10.15
2022-11-15T23:09:52.176Z,9.90
2022-11-15T23:12:38.309Z,9.38
2022-11-15T23:15:05.754Z,9.35
2022-11-15T23:17:32.995Z,9.10
2022-11-15T23:20:11.151Z,6.97
2022-11-15T23:22:49.583Z,9.73
2022-11-15T23:25:16.757Z,10.05
2022-11-15T23:27:46.807Z,8.95
2022-11-15T23:30:32.789Z,10.02
2022-11-15T23:33:18.869Z,10.60
2022-11-15T23:35:54.299Z,9.40
2022-11-15T23:38:21.702Z,8.50
2022-11-15T23:40:52.769Z,8.40
2022-11-15T23:43:19.973Z,8.30
2022-11-15T23:45:47.123Z,10.60
2022-11-15T23:48:14.035Z,9.68
2022-11-15T23:50:41.304Z,10.40
2022-11-15T23:53:08.374Z,9.80
2022-11-15T23:55:35.662Z,10.05
2022-11-15T23:58:03.693Z,8.82
